createdAt,value
2022-11-09T00:00:02.702Z,10.20
2022-11-09T00:01:02.779Z,10.20
2022-11-09T00:02:02.880Z,10.20
2022-11-09T00:03:02.982Z,10.20
2022-11-09T00:04:02.957Z,10.20
2022-11-09T00:05:02.922Z,10.20
2022-11-09T00:06:03.037Z,10.10
2022-11-09T00:07:03.047Z,10.10
2022-11-09T00:08:03.137Z,10.10
2022-11-09T00:09:07.321Z,10.10
2022-11-09T00:10:03.315Z,10.10
2022-11-09T00:11:03.336Z,10.10
2022-11-09T00:12:03.300Z,10.10
2022-11-09T00:13:03.460Z,10.10
2022-11-09T00:14:03.332Z,10.10
2022-11-09T00:15:03.549Z,10.10
2022-11-09T00:16:02.681Z,10.10
2022-11-09T00:17:02.721Z,10.10
2022-11-09T00:18:03.631Z,10.10
2022-11-09T00:19:02.757Z,10.10
2022-11-09T00:20:02.811Z,10.10
2022-11-09T00:21:02.844Z,10.10
2022-11-09T00:22:02.866Z,10.10
2022-11-09T00:23:03.039Z,10.10
2022-11-09T00:24:03.096Z,10.10
2022-11-09T00:25:03.102Z,10.00
2022-11-09T00:26:03.213Z,10.00
2022-11-09T00:27:03.424Z,10.00
2022-11-09T00:28:03.424Z,10.00
2022-11-09T00:29:03.384Z,10.00
2022-11-09T00:30:03.608Z,10.00
2022-11-09T00:31:02.754Z,10.00
2022-11-09T00:32:02.707Z,10.00
2022-11-09T00:33:02.649Z,10.00
2022-11-09T00:34:02.709Z,10.00
2022-11-09T00:35:02.766Z,10.00
2022-11-09T00:36:02.900Z,10.00
2022-11-09T00:37:02.923Z,10.00
2022-11-09T00:38:03.051Z,10.00
2022-11-09T00:39:03.116Z,10.00
2022-11-09T00:40:03.113Z,10.00
2022-11-09T00:41:03.263Z,10.00
2022-11-09T00:42:03.263Z,10.00
2022-11-09T00:43:03.312Z,10.00
2022-11-09T00:44:03.391Z,10.00
2022-11-09T00:45:02.630Z,10.00
2022-11-09T00:46:02.750Z,10.00
2022-11-09T00:47:02.774Z,10.00
2022-11-09T00:48:02.888Z,10.00
2022-11-09T00:49:02.956Z,10.00
2022-11-09T00:50:02.993Z,10.00
2022-11-09T00:51:03.036Z,10.00
2022-11-09T00:52:03.158Z,10.00
2022-11-09T00:53:02.868Z,10.00
2022-11-09T00:54:02.846Z,10.00
2022-11-09T00:55:02.832Z,10.00
2022-11-09T00:56:03.290Z,10.00
2022-11-09T00:57:03.371Z,10.00
2022-11-09T00:58:03.374Z,10.00
2022-11-09T00:59:03.505Z,10.00
2022-11-09T01:00:03.545Z,9.90
2022-11-09T01:01:03.574Z,10.00
2022-11-09T01:02:03.579Z,10.00
2022-11-09T01:03:03.601Z,10.00
2022-11-09T01:04:02.676Z,10.00
2022-11-09T01:05:03.500Z,10.10
2022-11-09T01:06:03.616Z,10.10
2022-11-09T01:07:03.710Z,10.10
2022-11-09T01:08:02.656Z,10.10
2022-11-09T01:09:02.840Z,10.10
2022-11-09T01:10:03.091Z,10.10
2022-11-09T01:11:03.340Z,10.10
2022-11-09T01:12:03.270Z,10.10
2022-11-09T01:13:03.416Z,10.20
2022-11-09T01:14:03.598Z,10.20
2022-11-09T01:15:02.723Z,10.10
2022-11-09T01:16:02.705Z,10.10
2022-11-09T01:17:02.816Z,10.20
2022-11-09T01:18:02.887Z,10.20
2022-11-09T01:19:03.113Z,10.20
2022-11-09T01:20:03.043Z,10.20
2022-11-09T01:21:03.064Z,10.20
2022-11-09T01:22:03.083Z,10.20
2022-11-09T01:23:03.036Z,10.20
2022-11-09T01:24:03.172Z,10.20
2022-11-09T01:25:03.243Z,10.20
2022-11-09T01:26:03.199Z,10.20
2022-11-09T01:27:03.362Z,10.20
2022-11-09T01:28:03.409Z,10.20
2022-11-09T01:29:03.440Z,10.20
2022-11-09T01:30:03.339Z,10.30
2022-11-09T01:31:03.436Z,10.30
2022-11-09T01:32:03.569Z,10.30
2022-11-09T01:33:03.644Z,10.30
2022-11-09T01:34:02.758Z,10.30
2022-11-09T01:35:02.693Z,10.30
2022-11-09T01:36:02.694Z,10.30
2022-11-09T01:37:02.771Z,10.30
2022-11-09T01:38:02.819Z,10.30
2022-11-09T01:39:03.069Z,10.30
2022-11-09T01:40:03.105Z,10.30
2022-11-09T01:41:03.153Z,10.30
2022-11-09T01:42:03.489Z,10.30
2022-11-09T01:43:03.478Z,10.30
2022-11-09T01:44:03.612Z,10.30
2022-11-09T01:45:02.801Z,10.30
2022-11-09T01:46:02.786Z,10.30
2022-11-09T01:47:02.897Z,10.30
2022-11-09T01:48:02.932Z,10.40
2022-11-09T01:49:03.085Z,10.40
2022-11-09T01:50:03.261Z,10.40
2022-11-09T01:51:03.233Z,10.40
2022-11-09T01:52:03.498Z,10.40
2022-11-09T01:53:03.424Z,10.50
2022-11-09T01:54:03.532Z,10.50
2022-11-09T01:55:02.613Z,10.50
2022-11-09T01:56:02.732Z,10.50
2022-11-09T01:57:02.810Z,10.60
2022-11-09T01:58:02.791Z,10.60
2022-11-09T01:59:02.801Z,10.60
2022-11-09T02:00:03.039Z,10.60
2022-11-09T02:01:03.012Z,10.60
2022-11-09T02:02:03.007Z,10.60
2022-11-09T02:03:03.131Z,10.60
2022-11-09T02:04:03.141Z,10.60
2022-11-09T02:05:03.328Z,10.60
2022-11-09T02:06:03.207Z,10.60
2022-11-09T02:07:03.314Z,10.60
2022-11-09T02:08:03.327Z,10.60
2022-11-09T02:09:03.376Z,10.60
2022-11-09T02:10:03.408Z,10.60
2022-11-09T02:11:03.452Z,10.60
2022-11-09T02:12:03.459Z,10.60
2022-11-09T02:13:03.463Z,10.50
2022-11-09T02:14:02.684Z,10.50
2022-11-09T02:15:02.865Z,10.50
2022-11-09T02:16:02.896Z,10.50
2022-11-09T02:17:02.898Z,10.50
2022-11-09T02:18:03.010Z,10.50
2022-11-09T02:19:03.051Z,10.50
2022-11-09T02:20:03.022Z,10.50
2022-11-09T02:21:03.088Z,10.50
2022-11-09T02:22:03.445Z,10.40
2022-11-09T02:23:03.471Z,10.40
2022-11-09T02:24:02.713Z,10.40
2022-11-09T02:25:02.821Z,10.40
2022-11-09T02:26:02.853Z,10.40
2022-11-09T02:27:02.993Z,10.40
2022-11-09T02:28:03.020Z,10.40
2022-11-09T02:29:03.126Z,10.40
2022-11-09T02:30:03.202Z,10.40
2022-11-09T02:31:03.134Z,10.40
2022-11-09T02:32:03.201Z,10.30
2022-11-09T02:33:03.280Z,10.30
2022-11-09T02:34:03.015Z,10.30
2022-11-09T02:35:03.089Z,10.30
2022-11-09T02:36:03.162Z,10.30
2022-11-09T02:37:03.305Z,10.30
2022-11-09T02:38:03.250Z,10.30
2022-11-09T02:39:03.429Z,10.30
2022-11-09T02:40:03.595Z,10.30
2022-11-09T02:41:03.700Z,10.20
2022-11-09T02:42:05.106Z,10.20
2022-11-09T02:43:02.724Z,10.20
2022-11-09T02:44:02.694Z,10.20
2022-11-09T02:45:02.894Z,10.20
2022-11-09T02:46:03.002Z,10.20
2022-11-09T02:47:02.933Z,10.20
2022-11-09T02:48:03.007Z,10.20
2022-11-09T02:49:03.017Z,10.20
2022-11-09T02:50:03.155Z,10.20
2022-11-09T02:51:03.199Z,10.20
2022-11-09T02:52:03.346Z,10.10
2022-11-09T02:53:03.395Z,10.10
2022-11-09T02:54:03.589Z,10.10
2022-11-09T02:55:03.680Z,10.10
2022-11-09T02:56:03.164Z,10.10
2022-11-09T02:57:03.224Z,10.10
2022-11-09T02:58:03.246Z,10.00
2022-11-09T02:59:03.299Z,10.00
2022-11-09T03:00:02.942Z,10.00
2022-11-09T03:01:02.936Z,10.00
2022-11-09T03:02:02.932Z,10.00
2022-11-09T03:03:02.934Z,10.00
2022-11-09T03:04:02.982Z,10.00
2022-11-09T03:05:03.130Z,10.00
2022-11-09T03:06:03.089Z,9.90
2022-11-09T03:07:03.173Z,9.90
2022-11-09T03:08:03.100Z,10.00
2022-11-09T03:09:03.123Z,9.90
2022-11-09T03:10:03.364Z,9.90
2022-11-09T03:11:03.387Z,10.00
2022-11-09T03:12:03.442Z,10.00
2022-11-09T03:13:03.467Z,10.00
2022-11-09T03:14:03.575Z,10.00
2022-11-09T03:15:02.661Z,10.00
2022-11-09T03:16:02.723Z,10.00
2022-11-09T03:17:02.776Z,10.00
2022-11-09T03:18:02.751Z,10.00
2022-11-09T03:19:02.811Z,10.00
2022-11-09T03:20:02.749Z,10.00
2022-11-09T03:21:02.918Z,9.90
2022-11-09T03:22:02.979Z,9.90
2022-11-09T03:23:02.959Z,9.90
2022-11-09T03:24:03.177Z,9.90
2022-11-09T03:25:03.131Z,9.90
2022-11-09T03:26:03.115Z,9.90
2022-11-09T03:27:03.239Z,9.90
2022-11-09T03:28:03.206Z,9.90
2022-11-09T03:29:03.337Z,9.90
2022-11-09T03:30:03.303Z,9.90
2022-11-09T03:31:03.270Z,9.90
2022-11-09T03:32:03.300Z,9.80
2022-11-09T03:33:03.368Z,9.90
2022-11-09T03:34:03.367Z,9.90
2022-11-09T03:35:03.468Z,9.90
2022-11-09T03:36:03.477Z,9.80
2022-11-09T03:37:03.494Z,9.90
2022-11-09T03:38:03.580Z,9.90
2022-11-09T03:39:03.513Z,9.90
2022-11-09T03:40:03.546Z,9.90
2022-11-09T03:41:03.653Z,9.90
2022-11-09T03:42:03.576Z,9.90
2022-11-09T03:43:03.598Z,9.90
2022-11-09T03:44:02.630Z,10.00
2022-11-09T03:45:02.699Z,10.00
2022-11-09T03:46:02.634Z,10.00
2022-11-09T03:47:02.667Z,10.00
2022-11-09T03:48:02.746Z,10.00
2022-11-09T03:49:02.777Z,10.10
2022-11-09T03:50:02.712Z,10.10
2022-11-09T03:51:03.460Z,10.10
2022-11-09T03:52:03.528Z,10.10
2022-11-09T03:53:03.521Z,10.10
2022-11-09T03:54:03.547Z,10.10
2022-11-09T03:55:03.620Z,10.10
2022-11-09T03:56:02.627Z,10.10
2022-11-09T03:57:02.732Z,10.10
2022-11-09T03:58:02.661Z,10.10
2022-11-09T03:59:02.720Z,10.10
2022-11-09T04:00:02.754Z,10.10
2022-11-09T04:01:02.821Z,10.10
2022-11-09T04:02:02.903Z,10.10
2022-11-09T04:03:02.945Z,10.10
2022-11-09T04:04:02.891Z,10.10
2022-11-09T04:05:03.046Z,10.10
2022-11-09T04:06:03.033Z,10.10
2022-11-09T04:07:03.259Z,10.10
2022-11-09T04:08:03.319Z,10.00
2022-11-09T04:09:03.421Z,10.00
2022-11-09T04:10:03.639Z,10.10
2022-11-09T04:11:02.649Z,10.00
2022-11-09T04:12:02.779Z,10.00
2022-11-09T04:13:02.790Z,10.00
2022-11-09T04:14:02.813Z,10.00
2022-11-09T04:15:02.907Z,10.00
2022-11-09T04:16:02.874Z,10.10
2022-11-09T04:17:02.915Z,10.10
2022-11-09T04:18:03.056Z,10.10
2022-11-09T04:19:03.176Z,10.10
2022-11-09T04:20:03.251Z,10.10
2022-11-09T04:21:03.314Z,10.10
2022-11-09T04:22:03.519Z,10.10
2022-11-09T04:23:03.584Z,10.10
2022-11-09T04:24:03.561Z,10.10
2022-11-09T04:25:03.545Z,10.10
2022-11-09T04:26:02.803Z,10.10
2022-11-09T04:27:02.765Z,10.10
2022-11-09T04:28:02.841Z,10.10
2022-11-09T04:29:02.823Z,10.10
2022-11-09T04:30:02.813Z,10.10
2022-11-09T04:31:02.871Z,10.10
2022-11-09T04:32:03.104Z,10.10
2022-11-09T04:33:03.165Z,10.10
2022-11-09T04:34:03.166Z,10.10
2022-11-09T04:35:03.314Z,10.10
2022-11-09T04:36:03.339Z,10.10
2022-11-09T04:37:03.365Z,10.10
2022-11-09T04:38:03.580Z,10.10
2022-11-09T04:39:03.564Z,10.10
2022-11-09T04:40:02.645Z,10.10
2022-11-09T04:41:02.777Z,10.10
2022-11-09T04:42:02.832Z,10.10
2022-11-09T04:43:02.841Z,10.10
2022-11-09T04:44:03.002Z,10.10
2022-11-09T04:45:03.086Z,10.10
2022-11-09T04:46:03.222Z,10.20
2022-11-09T04:47:03.208Z,10.20
2022-11-09T04:48:03.188Z,10.20
2022-11-09T04:49:03.195Z,10.20
2022-11-09T04:50:03.252Z,10.20
2022-11-09T04:51:03.262Z,10.20
2022-11-09T04:52:03.363Z,10.20
2022-11-09T04:53:07.563Z,10.20
2022-11-09T04:54:02.596Z,10.30
2022-11-09T04:55:02.725Z,10.30
2022-11-09T04:56:02.853Z,10.30
2022-11-09T04:57:02.812Z,10.30
2022-11-09T04:58:03.208Z,10.30
2022-11-09T04:59:03.227Z,10.30
2022-11-09T05:00:03.421Z,10.30
2022-11-09T05:01:03.580Z,10.30
2022-11-09T05:02:03.489Z,10.30
2022-11-09T05:03:03.492Z,10.40
2022-11-09T05:04:03.628Z,10.40
2022-11-09T05:05:02.617Z,10.40
2022-11-09T05:06:02.745Z,10.40
2022-11-09T05:07:02.767Z,10.40
2022-11-09T05:08:03.361Z,10.40
2022-11-09T05:09:03.435Z,10.40
2022-11-09T05:10:03.365Z,10.40
2022-11-09T05:11:03.419Z,10.50
2022-11-09T05:12:03.528Z,10.50
2022-11-09T05:13:03.470Z,10.50
2022-11-09T05:14:03.454Z,10.50
2022-11-09T05:15:03.504Z,10.50
2022-11-09T05:16:03.656Z,10.50
2022-11-09T05:17:02.676Z,10.50
2022-11-09T05:18:02.648Z,10.50
2022-11-09T05:19:02.744Z,10.60
2022-11-09T05:20:03.420Z,10.60
2022-11-09T05:21:03.382Z,10.60
2022-11-09T05:22:03.470Z,10.60
2022-11-09T05:23:03.484Z,10.60
2022-11-09T05:24:03.542Z,10.60
2022-11-09T05:25:03.959Z,10.60
2022-11-09T05:26:02.703Z,10.60
2022-11-09T05:27:02.797Z,10.60
2022-11-09T05:28:02.739Z,10.60
2022-11-09T05:29:02.868Z,10.60
2022-11-09T05:30:02.844Z,10.60
2022-11-09T05:31:02.922Z,10.60
2022-11-09T05:32:02.895Z,10.60
2022-11-09T05:33:02.991Z,10.60
2022-11-09T05:34:03.036Z,10.60
2022-11-09T05:35:03.225Z,10.60
2022-11-09T05:36:03.238Z,10.60
2022-11-09T05:37:03.759Z,10.60
2022-11-09T05:38:03.381Z,10.60
2022-11-09T05:39:03.543Z,10.60
2022-11-09T05:40:03.514Z,10.60
2022-11-09T05:41:03.582Z,10.60
2022-11-09T05:42:03.619Z,10.60
2022-11-09T05:43:03.641Z,10.60
2022-11-09T05:44:03.626Z,10.70
2022-11-09T05:45:21.238Z,10.70
2022-11-09T05:46:06.510Z,10.70
2022-11-09T05:47:03.366Z,10.70
2022-11-09T05:48:03.422Z,10.70
2022-11-09T05:49:03.401Z,10.70
2022-11-09T05:50:03.560Z,10.70
2022-11-09T05:51:02.668Z,10.70
2022-11-09T05:52:02.712Z,10.70
2022-11-09T05:53:02.903Z,10.70
2022-11-09T05:54:02.893Z,10.70
2022-11-09T05:55:02.890Z,10.70
2022-11-09T05:56:02.993Z,10.70
2022-11-09T05:57:02.978Z,10.80
2022-11-09T05:58:02.899Z,10.80
2022-11-09T05:59:02.936Z,10.80
2022-11-09T06:00:05.288Z,10.80
2022-11-09T06:01:03.155Z,10.80
2022-11-09T06:02:03.393Z,10.80
2022-11-09T06:03:03.403Z,10.80
2022-11-09T06:04:03.485Z,10.80
2022-11-09T06:05:02.612Z,10.80
2022-11-09T06:06:06.925Z,10.80
2022-11-09T06:07:02.835Z,10.80
2022-11-09T06:08:02.795Z,10.80
2022-11-09T06:09:02.875Z,10.80
2022-11-09T06:10:02.943Z,10.80
2022-11-09T06:11:03.137Z,10.80
2022-11-09T06:12:03.165Z,10.80
2022-11-09T06:13:03.312Z,10.80
2022-11-09T06:14:03.325Z,10.80
2022-11-09T06:15:03.324Z,10.80
2022-11-09T06:16:03.407Z,10.80
2022-11-09T06:17:03.526Z,10.80
2022-11-09T06:18:03.637Z,10.80
2022-11-09T06:19:02.629Z,10.80
2022-11-09T06:20:02.668Z,10.80
2022-11-09T06:21:02.890Z,10.80
2022-11-09T06:22:02.820Z,10.80
2022-11-09T06:23:03.716Z,10.80
2022-11-09T06:24:02.975Z,10.80
2022-11-09T06:25:03.075Z,10.80
2022-11-09T06:26:03.292Z,10.80
2022-11-09T06:27:03.249Z,10.80
2022-11-09T06:28:03.335Z,10.80
2022-11-09T06:29:03.425Z,10.80
2022-11-09T06:30:03.321Z,10.80
2022-11-09T06:31:03.491Z,10.80
2022-11-09T06:32:03.538Z,10.80
2022-11-09T06:33:03.596Z,10.80
2022-11-09T06:34:03.608Z,10.80
2022-11-09T06:35:03.587Z,10.80
2022-11-09T06:36:03.676Z,10.80
2022-11-09T06:37:02.632Z,10.80
2022-11-09T06:38:02.840Z,10.80
2022-11-09T06:39:02.946Z,10.80
2022-11-09T06:40:02.915Z,10.80
2022-11-09T06:41:03.063Z,10.80
2022-11-09T06:42:03.099Z,10.80
2022-11-09T06:43:03.058Z,10.80
2022-11-09T06:44:03.143Z,10.80
2022-11-09T06:45:03.118Z,10.80
2022-11-09T06:46:03.176Z,10.80
2022-11-09T06:47:03.313Z,10.80
2022-11-09T06:48:03.344Z,10.80
2022-11-09T06:49:03.490Z,10.80
2022-11-09T06:50:03.594Z,10.80
2022-11-09T06:51:02.670Z,10.80
2022-11-09T06:52:02.652Z,10.90
2022-11-09T06:53:02.798Z,10.80
2022-11-09T06:54:02.805Z,10.90
2022-11-09T06:55:02.852Z,10.90
2022-11-09T06:56:02.986Z,10.90
2022-11-09T06:57:02.824Z,10.90
2022-11-09T06:58:03.035Z,10.90
2022-11-09T06:59:03.139Z,10.90
2022-11-09T07:00:03.300Z,10.90
2022-11-09T07:01:03.337Z,10.90
2022-11-09T07:02:03.289Z,10.90
2022-11-09T07:03:03.214Z,10.90
2022-11-09T07:04:03.323Z,10.90
2022-11-09T07:05:03.544Z,10.90
2022-11-09T07:06:03.444Z,10.90
2022-11-09T07:07:03.527Z,10.90
2022-11-09T07:08:03.354Z,10.90
2022-11-09T07:09:03.372Z,10.90
2022-11-09T07:10:03.318Z,10.90
2022-11-09T07:11:03.307Z,10.90
2022-11-09T07:12:03.423Z,10.90
2022-11-09T07:13:03.480Z,10.90
2022-11-09T07:14:03.479Z,10.90
2022-11-09T07:15:03.586Z,10.90
2022-11-09T07:16:03.079Z,10.90
2022-11-09T07:17:03.130Z,10.80
2022-11-09T07:18:03.088Z,10.80
2022-11-09T07:19:03.120Z,10.80
2022-11-09T07:20:03.063Z,10.80
2022-11-09T07:21:03.259Z,10.80
2022-11-09T07:22:03.349Z,10.80
2022-11-09T07:23:03.349Z,10.80
2022-11-09T07:24:03.435Z,10.80
2022-11-09T07:25:03.392Z,10.80
2022-11-09T07:26:03.396Z,10.80
2022-11-09T07:27:03.589Z,10.80
2022-11-09T07:28:03.573Z,10.80
2022-11-09T07:29:02.730Z,10.80
2022-11-09T07:30:02.863Z,10.80
2022-11-09T07:31:02.778Z,10.80
2022-11-09T07:32:02.821Z,10.80
2022-11-09T07:33:09.032Z,10.80
2022-11-09T07:34:02.818Z,10.80
2022-11-09T07:35:02.893Z,10.80
2022-11-09T07:36:03.010Z,10.80
2022-11-09T07:37:02.910Z,10.80
2022-11-09T07:38:02.946Z,10.80
2022-11-09T07:39:02.949Z,10.80
2022-11-09T07:40:02.992Z,10.80
2022-11-09T07:41:03.068Z,10.80
2022-11-09T07:42:03.122Z,10.80
2022-11-09T07:43:03.209Z,10.80
2022-11-09T07:44:03.285Z,10.80
2022-11-09T07:45:03.256Z,10.80
2022-11-09T07:46:03.224Z,10.80
2022-11-09T07:47:03.299Z,10.80
2022-11-09T07:48:03.246Z,10.80
2022-11-09T07:49:03.290Z,10.80
2022-11-09T07:50:03.309Z,10.80
2022-11-09T07:51:03.429Z,10.80
2022-11-09T07:52:03.538Z,10.80
2022-11-09T07:53:02.732Z,10.80
2022-11-09T07:54:02.727Z,10.80
2022-11-09T07:55:02.728Z,10.80
2022-11-09T07:56:02.664Z,10.80
2022-11-09T07:57:02.772Z,10.80
2022-11-09T07:58:02.909Z,10.80
2022-11-09T07:59:02.968Z,10.80
2022-11-09T08:00:03.021Z,10.80
2022-11-09T08:01:03.150Z,10.80
2022-11-09T08:02:03.177Z,10.80
2022-11-09T08:03:03.088Z,10.80
2022-11-09T08:04:03.183Z,10.80
2022-11-09T08:05:03.261Z,10.80
2022-11-09T08:06:03.194Z,10.80
2022-11-09T08:07:03.323Z,10.80
2022-11-09T08:08:03.324Z,10.80
2022-11-09T08:09:03.405Z,10.80
2022-11-09T08:10:03.396Z,10.80
2022-11-09T08:11:03.500Z,10.80
2022-11-09T08:12:03.432Z,10.80
2022-11-09T08:13:02.688Z,10.80
2022-11-09T08:14:02.723Z,10.80
2022-11-09T08:15:02.677Z,10.90
2022-11-09T08:16:02.709Z,10.90
2022-11-09T08:17:02.879Z,10.90
2022-11-09T08:18:02.862Z,10.90
2022-11-09T08:19:02.783Z,10.90
2022-11-09T08:20:02.921Z,10.90
2022-11-09T08:21:02.976Z,10.90
2022-11-09T08:22:02.931Z,10.90
2022-11-09T08:23:04.673Z,10.90
2022-11-09T08:24:02.926Z,10.90
2022-11-09T08:25:02.968Z,11.00
2022-11-09T08:26:03.027Z,11.00
2022-11-09T08:27:02.966Z,11.00
2022-11-09T08:28:03.032Z,11.00
2022-11-09T08:29:03.122Z,11.00
2022-11-09T08:30:03.146Z,11.00
2022-11-09T08:31:03.110Z,11.10
2022-11-09T08:32:03.338Z,11.10
2022-11-09T08:33:03.363Z,11.10
2022-11-09T08:34:03.440Z,11.10
2022-11-09T08:35:03.485Z,11.10
2022-11-09T08:36:03.552Z,11.10
2022-11-09T08:37:02.652Z,11.10
2022-11-09T08:38:02.654Z,11.10
2022-11-09T08:39:02.709Z,11.10
2022-11-09T08:40:02.775Z,11.20
2022-11-09T08:41:02.758Z,11.10
2022-11-09T08:42:02.874Z,11.20
2022-11-09T08:43:02.871Z,11.20
2022-11-09T08:44:02.960Z,11.20
2022-11-09T08:45:03.009Z,11.20
2022-11-09T08:46:03.019Z,11.20
2022-11-09T08:47:02.988Z,11.20
2022-11-09T08:48:03.081Z,11.20
2022-11-09T08:49:03.154Z,11.20
2022-11-09T08:50:03.132Z,11.20
2022-11-09T08:51:03.127Z,11.30
2022-11-09T08:52:03.171Z,11.30
2022-11-09T08:53:03.243Z,11.30
2022-11-09T08:54:03.165Z,11.30
2022-11-09T08:55:03.244Z,11.40
2022-11-09T08:56:03.256Z,11.40
2022-11-09T08:57:03.203Z,11.40
2022-11-09T08:58:03.354Z,11.40
2022-11-09T08:59:03.259Z,11.40
2022-11-09T09:00:03.411Z,11.50
2022-11-09T09:01:03.565Z,11.50
2022-11-09T09:02:03.624Z,11.50
2022-11-09T09:03:02.620Z,11.50
2022-11-09T09:04:02.634Z,11.50
2022-11-09T09:05:02.703Z,11.60
2022-11-09T09:06:02.754Z,11.60
2022-11-09T09:07:02.901Z,11.60
2022-11-09T09:08:03.030Z,11.60
2022-11-09T09:09:03.054Z,11.60
2022-11-09T09:10:03.162Z,11.70
2022-11-09T09:11:03.081Z,11.70
2022-11-09T09:12:03.201Z,11.70
2022-11-09T09:13:03.243Z,11.70
2022-11-09T09:14:03.223Z,11.70
2022-11-09T09:15:03.320Z,11.80
2022-11-09T09:16:03.334Z,11.80
2022-11-09T09:17:03.407Z,11.80
2022-11-09T09:18:03.297Z,11.80
2022-11-09T09:19:03.400Z,11.80
2022-11-09T09:20:03.395Z,11.80
2022-11-09T09:21:03.488Z,11.90
2022-11-09T09:22:03.521Z,11.90
2022-11-09T09:23:03.601Z,11.90
2022-11-09T09:24:02.659Z,11.90
2022-11-09T09:25:03.631Z,11.90
2022-11-09T09:26:02.723Z,11.90
2022-11-09T09:27:02.757Z,11.90
2022-11-09T09:28:02.792Z,12.00
2022-11-09T09:29:02.732Z,12.00
2022-11-09T09:30:02.825Z,12.00
2022-11-09T09:31:02.875Z,12.00
2022-11-09T09:32:02.828Z,12.10
2022-11-09T09:33:02.963Z,12.10
2022-11-09T09:34:02.932Z,12.10
2022-11-09T09:35:02.815Z,12.10
2022-11-09T09:36:02.960Z,12.10
2022-11-09T09:37:02.990Z,12.20
2022-11-09T09:38:02.900Z,12.20
2022-11-09T09:39:03.010Z,12.20
2022-11-09T09:40:02.984Z,12.30
2022-11-09T09:41:02.991Z,12.30
2022-11-09T09:42:03.082Z,12.30
2022-11-09T09:43:03.083Z,12.30
2022-11-09T09:44:03.061Z,12.40
2022-11-09T09:45:02.950Z,12.40
2022-11-09T09:46:03.002Z,12.40
2022-11-09T09:47:02.948Z,12.50
2022-11-09T09:48:02.966Z,12.50
2022-11-09T09:49:02.975Z,12.50
2022-11-09T09:50:03.145Z,12.60
2022-11-09T09:51:03.140Z,12.60
2022-11-09T09:52:03.262Z,12.60
2022-11-09T09:53:22.494Z,12.60
2022-11-09T09:54:03.509Z,12.70
2022-11-09T09:55:03.502Z,12.70
2022-11-09T09:56:03.564Z,12.70
2022-11-09T09:57:03.476Z,12.80
2022-11-09T09:58:02.622Z,12.80
2022-11-09T09:59:02.773Z,12.90
2022-11-09T10:00:02.658Z,12.90
2022-11-09T10:01:02.847Z,12.90
2022-11-09T10:02:02.921Z,13.00
2022-11-09T10:03:02.933Z,13.00
2022-11-09T10:04:03.105Z,13.00
2022-11-09T10:05:03.101Z,13.00
2022-11-09T10:06:03.179Z,13.00
2022-11-09T10:07:03.237Z,13.00
2022-11-09T10:08:03.185Z,13.00
2022-11-09T10:09:03.163Z,13.10
2022-11-09T10:10:03.348Z,13.00
2022-11-09T10:11:03.480Z,13.00
2022-11-09T10:12:03.557Z,13.00
2022-11-09T10:13:03.575Z,13.00
2022-11-09T10:14:03.548Z,13.00
2022-11-09T10:15:03.539Z,13.00
2022-11-09T10:16:03.536Z,13.00
2022-11-09T10:17:03.448Z,13.00
2022-11-09T10:18:03.370Z,13.00
2022-11-09T10:19:03.384Z,13.00
2022-11-09T10:20:03.374Z,13.00
2022-11-09T10:21:03.496Z,13.00
2022-11-09T10:22:03.603Z,13.00
2022-11-09T10:23:03.581Z,13.00
2022-11-09T10:24:02.725Z,13.00
2022-11-09T10:25:32.508Z,12.90
2022-11-09T10:26:04.752Z,13.00
2022-11-09T10:27:02.870Z,13.00
2022-11-09T10:28:02.852Z,13.00
2022-11-09T10:29:15.885Z,13.00
2022-11-09T10:30:02.987Z,13.00
2022-11-09T10:31:03.114Z,13.00
2022-11-09T10:32:03.201Z,13.00
2022-11-09T10:33:03.023Z,13.00
2022-11-09T10:34:03.043Z,13.00
2022-11-09T10:35:03.155Z,13.00
2022-11-09T10:36:07.954Z,13.00
2022-11-09T10:37:03.282Z,13.00
2022-11-09T10:38:03.469Z,13.00
2022-11-09T10:39:03.552Z,13.10
2022-11-09T10:40:03.542Z,13.10
2022-11-09T10:41:03.479Z,13.10
2022-11-09T10:42:03.540Z,13.10
2022-11-09T10:43:03.554Z,13.10
2022-11-09T10:44:03.518Z,13.10
2022-11-09T10:45:03.468Z,13.10
2022-11-09T10:46:03.630Z,13.10
2022-11-09T10:47:02.674Z,13.10
2022-11-09T10:48:02.642Z,13.20
2022-11-09T10:49:02.853Z,13.20
2022-11-09T10:50:02.826Z,13.20
2022-11-09T10:51:02.850Z,13.20
2022-11-09T10:52:02.901Z,13.20
2022-11-09T10:53:02.965Z,13.20
2022-11-09T10:54:02.945Z,13.20
2022-11-09T10:55:03.106Z,13.20
2022-11-09T10:56:03.097Z,13.20
2022-11-09T10:57:06.599Z,13.20
2022-11-09T10:58:03.303Z,13.20
2022-11-09T10:59:03.282Z,13.30
2022-11-09T11:00:03.483Z,13.20
2022-11-09T11:01:03.605Z,13.20
2022-11-09T11:02:03.666Z,13.20
2022-11-09T11:03:03.639Z,13.20
2022-11-09T11:04:03.656Z,13.30
2022-11-09T11:05:03.628Z,13.20
2022-11-09T11:06:02.596Z,13.30
2022-11-09T11:07:02.829Z,13.20
2022-11-09T11:08:02.837Z,13.30
2022-11-09T11:09:02.873Z,13.30
2022-11-09T11:10:02.828Z,13.30
2022-11-09T11:11:19.616Z,13.30
2022-11-09T11:12:03.021Z,13.30
2022-11-09T11:13:03.065Z,13.30
2022-11-09T11:14:03.139Z,13.30
2022-11-09T11:15:03.252Z,13.30
2022-11-09T11:16:03.308Z,13.30
2022-11-09T11:17:03.443Z,13.30
2022-11-09T11:18:03.487Z,13.30
2022-11-09T11:19:03.552Z,13.30
2022-11-09T11:20:03.566Z,13.30
2022-11-09T11:21:02.680Z,13.40
2022-11-09T11:22:02.758Z,13.40
2022-11-09T11:23:02.848Z,13.40
2022-11-09T11:24:02.808Z,13.40
2022-11-09T11:25:02.739Z,13.40
2022-11-09T11:26:02.726Z,13.40
2022-11-09T11:27:06.602Z,13.50
2022-11-09T11:28:03.426Z,13.50
2022-11-09T11:29:03.551Z,13.50
2022-11-09T11:30:03.531Z,13.50
2022-11-09T11:31:03.509Z,13.50
2022-11-09T11:32:02.663Z,13.60
2022-11-09T11:33:02.740Z,13.60
2022-11-09T11:34:02.813Z,13.60
2022-11-09T11:35:02.824Z,13.60
2022-11-09T11:36:04.551Z,13.60
2022-11-09T11:37:03.556Z,13.60
2022-11-09T11:38:02.608Z,13.60
2022-11-09T11:39:02.683Z,13.60
2022-11-09T11:40:02.920Z,13.70
2022-11-09T11:41:02.810Z,13.70
2022-11-09T11:42:02.890Z,13.70
2022-11-09T11:43:02.965Z,13.60
2022-11-09T11:44:02.855Z,13.70
2022-11-09T11:45:25.952Z,13.70
2022-11-09T11:46:03.005Z,13.70
2022-11-09T11:47:03.131Z,13.60
2022-11-09T11:48:03.066Z,13.70
2022-11-09T11:49:03.023Z,13.70
2022-11-09T11:50:03.129Z,13.70
2022-11-09T11:51:03.016Z,13.70
2022-11-09T11:52:03.105Z,13.70
2022-11-09T11:53:03.072Z,13.70
2022-11-09T11:54:03.006Z,13.70
2022-11-09T11:55:03.118Z,13.70
2022-11-09T11:56:03.117Z,13.70
2022-11-09T11:57:02.985Z,13.80
2022-11-09T11:58:03.062Z,13.80
2022-11-09T11:59:03.102Z,13.80
2022-11-09T12:00:03.143Z,13.80
2022-11-09T12:01:03.055Z,13.80
2022-11-09T12:02:03.063Z,13.80
2022-11-09T12:03:03.262Z,13.80
2022-11-09T12:04:03.157Z,13.80
2022-11-09T12:05:03.191Z,13.90
2022-11-09T12:06:03.174Z,13.90
2022-11-09T12:07:03.329Z,13.90
2022-11-09T12:08:03.285Z,13.90
2022-11-09T12:09:03.343Z,13.90
2022-11-09T12:10:03.448Z,13.90
2022-11-09T12:11:03.515Z,13.90
2022-11-09T12:12:03.630Z,13.90
2022-11-09T12:13:02.606Z,13.90
2022-11-09T12:14:02.681Z,13.90
2022-11-09T12:15:02.785Z,13.90
2022-11-09T12:16:02.916Z,13.90
2022-11-09T12:17:02.966Z,13.90
2022-11-09T12:18:02.944Z,13.90
2022-11-09T12:19:03.021Z,13.90
2022-11-09T12:20:03.203Z,13.90
2022-11-09T12:21:03.181Z,13.90
2022-11-09T12:22:03.238Z,14.00
2022-11-09T12:23:03.340Z,14.00
2022-11-09T12:24:03.516Z,14.00
2022-11-09T12:25:03.470Z,14.00
2022-11-09T12:26:03.505Z,14.00
2022-11-09T12:27:25.966Z,14.00
2022-11-09T12:28:03.502Z,14.00
2022-11-09T12:29:03.525Z,14.00
2022-11-09T12:30:02.733Z,14.10
2022-11-09T12:31:02.793Z,14.10
2022-11-09T12:32:02.860Z,14.10
2022-11-09T12:33:02.949Z,14.10
2022-11-09T12:34:02.903Z,14.10
2022-11-09T12:35:03.000Z,14.10
2022-11-09T12:36:03.027Z,14.10
2022-11-09T12:37:02.988Z,14.20
2022-11-09T12:38:02.999Z,14.20
2022-11-09T12:39:03.143Z,14.20
2022-11-09T12:40:03.012Z,14.20
2022-11-09T12:41:03.066Z,14.20
2022-11-09T12:42:03.142Z,14.20
2022-11-09T12:43:03.040Z,14.20
2022-11-09T12:44:03.198Z,14.20
2022-11-09T12:45:03.171Z,14.20
2022-11-09T12:46:03.179Z,14.20
2022-11-09T12:47:03.239Z,14.20
2022-11-09T12:48:03.227Z,14.20
2022-11-09T12:49:03.328Z,14.20
2022-11-09T12:50:03.391Z,14.20
2022-11-09T12:51:03.443Z,14.20
2022-11-09T12:52:03.511Z,14.20
2022-11-09T12:53:03.496Z,14.20